createdAt,value
2023-03-28T11:15:27.097Z,12.34
2023-03-28T11:18:18.604Z,12.27
2023-03-28T11:21:05.408Z,12.21
2023-03-28T11:23:39.174Z,12.23
2023-03-28T11:26:34.157Z,12.28
2023-03-28T11:29:40.209Z,12.36
2023-03-28T11:32:11.254Z,12.42
2023-03-28T11:34:43.376Z,12.50
2023-03-28T11:37:19.158Z,12.56
2023-03-28T11:39:53.059Z,12.57
2023-03-28T11:42:38.214Z,12.57
2023-03-28T11:45:14.789Z,12.56
2023-03-28T11:47:48.921Z,12.53
2023-03-28T11:50:17.313Z,12.43
2023-03-28T11:53:07.698Z,12.38
2023-03-28T11:55:50.320Z,12.39
2023-03-28T11:58:43.756Z,12.43
2023-03-28T12:01:23.134Z,12.46
2023-03-28T12:03:59.077Z,12.54
2023-03-28T12:06:35.422Z,12.56
2023-03-28T12:09:19.956Z,12.61
2023-03-28T12:11:48.283Z,12.77
2023-03-28T12:14:42.047Z,12.93
2023-03-28T12:17:24.887Z,13.27
2023-03-28T12:19:54.096Z,13.59
2023-03-28T12:22:26.873Z,13.89
2023-03-28T12:24:59.149Z,13.94
2023-03-28T12:27:42.591Z,13.82
2023-03-28T12:30:26.652Z,13.64
2023-03-28T12:33:06.573Z,13.60
2023-03-28T12:35:46.920Z,13.77
2023-03-28T12:38:33.344Z,13.98
2023-03-28T12:41:21.302Z,14.16
2023-03-28T12:44:04.633Z,14.22
2023-03-28T12:46:46.596Z,14.28
2023-03-28T12:49:37.910Z,14.49
2023-03-28T12:52:12.222Z,15.41
2023-03-28T12:55:03.101Z,16.25
2023-03-28T12:57:42.799Z,17.29
2023-03-28T13:00:53.724Z,18.08
2023-03-28T13:03:36.185Z,18.92
2023-03-28T13:06:26.380Z,19.37
2023-03-28T13:08:59.992Z,19.67
2023-03-28T13:11:48.280Z,19.92
2023-03-28T13:14:30.880Z,20.20
2023-03-28T13:16:58.181Z,20.49
2023-03-28T13:19:44.607Z,20.65
2023-03-28T13:22:32.002Z,20.41
2023-03-28T13:25:22.754Z,19.94
2023-03-28T13:27:51.245Z,19.59
2023-03-28T13:30:20.458Z,19.66
2023-03-28T13:32:52.749Z,20.19
2023-03-28T13:35:38.999Z,20.64
2023-03-28T13:38:22.743Z,20.80
2023-03-28T13:40:55.110Z,20.84
2023-03-28T13:43:25.628Z,20.89
2023-03-28T13:45:54.844Z,20.93
2023-03-28T13:48:24.870Z,21.13
2023-03-28T13:50:53.710Z,21.23
2023-03-28T13:53:20.998Z,21.52
2023-03-28T13:55:48.406Z,21.79
2023-03-28T13:58:17.297Z,21.87
2023-03-28T14:00:47.054Z,21.79
2023-03-28T14:03:15.261Z,21.59
2023-03-28T14:05:44.289Z,21.58
2023-03-28T14:08:15.106Z,21.81
2023-03-28T14:10:43.692Z,21.86
2023-03-28T14:13:15.135Z,21.80
2023-03-28T14:15:43.651Z,21.57
2023-03-28T14:18:19.123Z,21.32
2023-03-28T14:20:47.004Z,21.28
2023-03-28T14:23:30.969Z,21.67
2023-03-28T14:26:02.464Z,21.92
2023-03-28T14:28:30.803Z,22.20
2023-03-28T14:30:58.742Z,22.31
2023-03-28T14:33:26.404Z,21.99
2023-03-28T14:36:02.916Z,21.66
2023-03-28T14:38:38.493Z,21.60
2023-03-28T14:41:08.946Z,21.61
2023-03-28T14:43:37.437Z,21.52
2023-03-28T14:46:06.636Z,21.32
2023-03-28T14:48:35.352Z,21.22
2023-03-28T14:51:04.118Z,21.35
2023-03-28T14:53:53.118Z,21.15
2023-03-28T14:56:25.603Z,20.99
2023-03-28T14:58:54.492Z,20.57
2023-03-28T15:01:25.098Z,20.06
2023-03-28T15:03:59.943Z,19.50
2023-03-28T15:06:29.518Z,18.88
2023-03-28T15:09:04.202Z,18.37
2023-03-28T15:11:33.962Z,17.91
2023-03-28T15:14:12.714Z,17.86
2023-03-28T15:16:42.587Z,18.15
2023-03-28T15:19:23.016Z,18.15
2023-03-28T15:21:55.094Z,17.98
2023-03-28T15:24:23.079Z,17.66
2023-03-28T15:26:53.406Z,17.49
2023-03-28T15:29:21.775Z,17.09
2023-03-28T15:31:49.439Z,16.56
2023-03-28T15:34:29.270Z,16.04
2023-03-28T15:37:05.391Z,15.60
2023-03-28T15:39:34.064Z,14.77
2023-03-28T15:42:21.514Z,13.89
2023-03-28T15:44:57.885Z,12.92
2023-03-28T15:47:27.250Z,12.24
2023-03-28T15:50:05.007Z,11.73
2023-03-28T15:52:34.300Z,11.31
2023-03-28T15:55:02.041Z,11.02
2023-03-28T15:57:31.145Z,10.77
2023-03-28T16:00:00.330Z,10.57
2023-03-28T16:02:28.085Z,10.39
2023-03-28T16:05:02.949Z,10.25
2023-03-28T16:07:46.663Z,10.13
2023-03-28T16:10:18.199Z,10.05
2023-03-28T16:13:16.914Z,9.90
2023-03-28T16:16:18.825Z,9.84
2023-03-28T16:18:55.175Z,9.74
2023-03-28T16:21:22.733Z,9.64
2023-03-28T16:23:49.940Z,9.58
2023-03-28T16:26:17.238Z,9.55
2023-03-28T16:28:45.013Z,9.48
2023-03-28T16:31:15.824Z,9.38
2023-03-28T16:33:43.239Z,9.29
2023-03-28T16:36:12.300Z,9.23
2023-03-28T16:38:39.905Z,9.13
2023-03-28T16:41:07.457Z,9.02
2023-03-28T16:43:35.038Z,8.94
2023-03-28T16:46:02.921Z,8.88
2023-03-28T16:48:32.419Z,8.81
2023-03-28T16:51:04.945Z,8.76
2023-03-28T16:53:36.244Z,8.78
2023-03-28T16:56:04.582Z,8.79
2023-03-28T16:58:32.286Z,8.77
2023-03-28T17:01:14.040Z,8.70
2023-03-28T17:03:42.428Z,8.67
2023-03-28T17:06:09.975Z,8.62
2023-03-28T17:08:37.864Z,8.59
2023-03-28T17:11:10.060Z,8.58
2023-03-28T17:13:38.590Z,8.53
2023-03-28T17:16:07.891Z,8.48
2023-03-28T17:18:36.166Z,8.42
2023-03-28T17:21:07.935Z,8.36
2023-03-28T17:23:57.206Z,8.32
2023-03-28T17:26:24.833Z,8.25
2023-03-28T17:28:53.251Z,8.17
2023-03-28T17:31:21.171Z,8.12
2023-03-28T17:33:49.181Z,8.09
2023-03-28T17:36:21.432Z,8.08
2023-03-28T17:38:50.093Z,8.03
2023-03-28T17:41:17.923Z,8.04
2023-03-28T17:43:45.715Z,8.00
2023-03-28T17:46:13.033Z,8.00
2023-03-28T17:48:41.111Z,8.00
2023-03-28T17:51:10.232Z,8.02
2023-03-28T17:53:41.692Z,8.01
2023-03-28T17:56:09.795Z,7.99
2023-03-28T17:58:37.947Z,7.99
2023-03-28T18:01:12.907Z,8.00
2023-03-28T18:03:41.156Z,8.02
2023-03-28T18:06:35.395Z,8.05
2023-03-28T18:09:03.344Z,8.08
2023-03-28T18:11:31.883Z,8.11
2023-03-28T18:13:59.381Z,8.15
2023-03-28T18:16:27.821Z,8.16
2023-03-28T18:18:55.481Z,8.20
2023-03-28T18:21:22.938Z,8.24
2023-03-28T18:23:50.533Z,8.27
2023-03-28T18:26:17.762Z,8.30
2023-03-28T18:28:45.480Z,8.32
2023-03-28T18:31:17.589Z,8.32
2023-03-28T18:33:45.351Z,8.37
2023-03-28T18:36:13.973Z,8.40
2023-03-28T18:38:43.406Z,8.44
2023-03-28T18:41:12.734Z,8.48
2023-03-28T18:43:41.509Z,8.48
2023-03-28T18:46:10.130Z,8.49
2023-03-28T18:48:38.840Z,8.51
2023-03-28T18:51:09.013Z,8.50
2023-03-28T18:53:39.187Z,8.49
2023-03-28T18:56:08.166Z,8.49
2023-03-28T18:58:37.323Z,8.44
2023-03-28T19:01:06.690Z,8.41
2023-03-28T19:03:40.618Z,8.37
2023-03-28T19:06:09.529Z,8.30
2023-03-28T19:08:37.397Z,8.22
2023-03-28T19:11:07.922Z,8.11
2023-03-28T19:13:35.574Z,8.03
2023-03-28T19:16:07.878Z,7.94
2023-03-28T19:18:38.928Z,7.89
2023-03-28T19:21:07.309Z,7.81
2023-03-28T19:23:36.886Z,7.74
2023-03-28T19:26:05.709Z,7.68
2023-03-28T19:28:33.301Z,7.61
2023-03-28T19:31:02.050Z,7.53
2023-03-28T19:33:29.963Z,7.45
2023-03-28T19:35:57.810Z,7.39
2023-03-28T19:38:26.115Z,7.34
2023-03-28T19:40:57.872Z,7.31
2023-03-28T19:43:25.575Z,7.27
2023-03-28T19:45:53.216Z,7.20
2023-03-28T19:48:20.533Z,7.19
2023-03-28T19:50:49.151Z,7.16
2023-03-28T19:53:16.361Z,7.11
2023-03-28T19:55:43.854Z,7.12
2023-03-28T19:58:11.058Z,7.18
2023-03-28T20:00:38.429Z,7.21
2023-03-28T20:03:05.888Z,7.23
2023-03-28T20:05:33.150Z,7.26
2023-03-28T20:08:01.458Z,7.30
2023-03-28T20:10:28.637Z,7.33
2023-03-28T20:12:56.237Z,7.39
2023-03-28T20:15:23.842Z,7.44
2023-03-28T20:17:51.248Z,7.50
2023-03-28T20:20:19.824Z,7.53
2023-03-28T20:22:47.094Z,7.58
2023-03-28T20:25:14.986Z,7.63
2023-03-28T20:27:42.972Z,7.65
2023-03-28T20:30:11.257Z,7.66
2023-03-28T20:32:38.676Z,7.65
2023-03-28T20:35:06.927Z,7.63
2023-03-28T20:37:35.014Z,7.60
2023-03-28T20:40:10.620Z,7.58
2023-03-28T20:42:41.150Z,7.55
2023-03-28T20:45:09.448Z,7.49
2023-03-28T20:47:39.493Z,7.47
2023-03-28T20:50:08.986Z,7.42
2023-03-28T20:52:37.551Z,7.37
2023-03-28T20:55:05.832Z,7.35
2023-03-28T20:57:36.225Z,7.33
2023-03-28T21:00:07.226Z,7.31
2023-03-28T21:02:36.397Z,7.31
2023-03-28T21:05:04.854Z,7.32
2023-03-28T21:07:32.222Z,7.34
2023-03-28T21:09:59.988Z,7.36
2023-03-28T21:12:27.839Z,7.36
2023-03-28T21:14:58.302Z,7.34
2023-03-28T21:17:26.626Z,7.33
2023-03-28T21:19:54.258Z,7.29
2023-03-28T21:22:22.495Z,7.22
2023-03-28T21:24:50.936Z,7.18
2023-03-28T21:27:18.365Z,7.16
2023-03-28T21:29:45.704Z,7.12
2023-03-28T21:32:14.705Z,7.10
2023-03-28T21:34:43.233Z,7.08
2023-03-28T21:37:12.090Z,7.08
2023-03-28T21:39:39.731Z,7.10
2023-03-28T21:42:07.468Z,7.14
2023-03-28T21:44:35.019Z,7.20
2023-03-28T21:47:02.436Z,7.27
2023-03-28T21:49:30.736Z,7.32
2023-03-28T21:51:58.194Z,7.34
2023-03-28T21:54:25.928Z,7.34
2023-03-28T21:56:53.613Z,7.33
2023-03-28T21:59:21.087Z,7.33
2023-03-28T22:01:48.402Z,7.30
2023-03-28T22:04:16.003Z,7.21
2023-03-28T22:06:43.350Z,7.11
2023-03-28T22:09:10.853Z,7.01
2023-03-28T22:11:39.896Z,6.91
2023-03-28T22:14:07.568Z,6.79
2023-03-28T22:16:37.722Z,6.71
2023-03-28T22:19:05.979Z,6.68
2023-03-28T22:21:33.358Z,6.65
2023-03-28T22:24:02.675Z,6.65
2023-03-28T22:26:30.884Z,6.64
2023-03-28T22:28:58.726Z,6.62
2023-03-28T22:31:26.756Z,6.60
2023-03-28T22:33:54.645Z,6.55
2023-03-28T22:36:22.057Z,6.49
2023-03-28T22:38:50.259Z,6.47
2023-03-28T22:41:17.623Z,6.43
2023-03-28T22:43:45.175Z,6.41
2023-03-28T22:46:12.943Z,6.36
2023-03-28T22:48:40.393Z,6.35
2023-03-28T22:51:12.035Z,6.36
2023-03-28T22:53:40.187Z,6.31
2023-03-28T22:56:08.642Z,6.26
2023-03-28T22:58:37.353Z,6.24
2023-03-28T23:01:04.701Z,6.20
2023-03-28T23:03:32.554Z,6.19
2023-03-28T23:06:06.992Z,6.18
2023-03-28T23:08:35.017Z,6.17
2023-03-28T23:11:02.462Z,6.17
2023-03-28T23:13:29.933Z,6.21
2023-03-28T23:15:57.662Z,6.25
2023-03-28T23:18:24.904Z,6.31
2023-03-28T23:20:52.438Z,6.36
2023-03-28T23:23:19.606Z,6.39
2023-03-28T23:25:47.471Z,6.41
2023-03-28T23:28:15.126Z,6.43
2023-03-28T23:30:42.350Z,6.49
2023-03-28T23:33:09.806Z,6.59
2023-03-28T23:35:37.427Z,6.72
2023-03-28T23:38:05.415Z,6.81
2023-03-28T23:40:32.657Z,6.94
2023-03-28T23:43:00.275Z,7.01
2023-03-28T23:45:27.699Z,7.09
2023-03-28T23:47:55.027Z,7.19
2023-03-28T23:50:22.445Z,7.28
2023-03-28T23:52:50.492Z,7.39
2023-03-28T23:55:17.760Z,7.48
2023-03-28T23:57:45.297Z,7.54
